createdAt,value
2022-10-18T00:00:42.917Z,13.62
2022-10-18T00:03:09.504Z,13.64
2022-10-18T00:05:36.058Z,13.62
2022-10-18T00:08:02.543Z,13.62
2022-10-18T00:10:29.223Z,13.59
2022-10-18T00:12:55.675Z,13.57
2022-10-18T00:15:22.262Z,13.56
2022-10-18T00:17:49.006Z,13.53
2022-10-18T00:20:15.709Z,13.55
2022-10-18T00:22:42.426Z,13.56
2022-10-18T00:25:09.415Z,13.59
2022-10-18T00:27:36.076Z,13.59
2022-10-18T00:30:02.641Z,13.60
2022-10-18T00:32:29.466Z,13.56
2022-10-18T00:34:56.184Z,13.51
2022-10-18T00:37:22.695Z,13.51
2022-10-18T00:39:49.372Z,13.54
2022-10-18T00:42:19.555Z,13.55
2022-10-18T00:44:46.237Z,13.57
2022-10-18T00:47:13.591Z,13.59
2022-10-18T00:49:44.401Z,13.60
2022-10-18T00:52:30.959Z,13.61
2022-10-18T00:54:57.679Z,13.63
2022-10-18T00:57:24.436Z,13.64
2022-10-18T00:59:51.280Z,13.65
2022-10-18T01:02:18.529Z,13.66
2022-10-18T01:04:45.782Z,13.64
2022-10-18T01:07:18.360Z,13.67
2022-10-18T01:09:49.913Z,13.67
2022-10-18T01:12:20.630Z,13.68
2022-10-18T01:14:54.904Z,13.67
2022-10-18T01:17:33.346Z,13.65
2022-10-18T01:20:15.389Z,13.59
2022-10-18T01:22:46.067Z,13.60
2022-10-18T01:25:18.695Z,13.58
2022-10-18T01:27:49.866Z,13.58
2022-10-18T01:30:16.368Z,13.58
2022-10-18T01:32:47.832Z,13.60
2022-10-18T01:35:15.259Z,13.60
2022-10-18T01:37:41.814Z,13.60
2022-10-18T01:40:08.615Z,13.60
2022-10-18T01:42:35.203Z,13.59
2022-10-18T01:45:01.964Z,13.60
2022-10-18T01:47:28.910Z,13.61
2022-10-18T01:49:59.694Z,13.60
2022-10-18T01:52:26.321Z,13.60
2022-10-18T01:54:52.976Z,13.58
2022-10-18T01:57:19.611Z,13.50
2022-10-18T01:59:52.497Z,13.45
2022-10-18T02:02:22.222Z,13.49
2022-10-18T02:04:53.983Z,13.49
2022-10-18T02:07:25.698Z,13.46
2022-10-18T02:09:55.311Z,13.50
2022-10-18T02:12:21.890Z,13.51
2022-10-18T02:14:48.482Z,13.50
2022-10-18T02:17:15.027Z,13.51
2022-10-18T02:19:46.642Z,13.52
2022-10-18T02:22:13.484Z,13.53
2022-10-18T02:24:42.210Z,13.54
2022-10-18T02:27:09.082Z,13.54
2022-10-18T02:29:35.784Z,13.56
2022-10-18T02:32:18.447Z,13.55
2022-10-18T02:34:47.031Z,13.55
2022-10-18T02:37:13.643Z,13.55
2022-10-18T02:39:44.211Z,13.56
2022-10-18T02:42:10.984Z,13.57
2022-10-18T02:44:38.387Z,13.55
2022-10-18T02:47:05.352Z,13.55
2022-10-18T02:49:31.934Z,13.53
2022-10-18T02:51:58.517Z,13.52
2022-10-18T02:54:25.044Z,13.53
2022-10-18T02:56:51.705Z,13.50
2022-10-18T02:59:18.414Z,13.50
2022-10-18T03:01:45.071Z,13.49
2022-10-18T03:04:11.722Z,13.47
2022-10-18T03:06:38.305Z,13.45
2022-10-18T03:09:06.037Z,13.44
2022-10-18T03:11:32.743Z,13.45
2022-10-18T03:13:59.336Z,13.43
2022-10-18T03:16:25.998Z,13.44
2022-10-18T03:18:52.627Z,13.42
2022-10-18T03:21:19.293Z,13.42
2022-10-18T03:23:45.965Z,13.40
2022-10-18T03:26:13.663Z,13.39
2022-10-18T03:28:40.406Z,13.37
2022-10-18T03:31:06.974Z,13.35
2022-10-18T03:33:33.606Z,13.31
2022-10-18T03:36:00.310Z,13.31
2022-10-18T03:38:26.963Z,13.32
2022-10-18T03:40:53.850Z,13.32
2022-10-18T03:43:20.441Z,13.30
2022-10-18T03:45:47.017Z,13.30
2022-10-18T03:48:13.749Z,13.29
2022-10-18T03:50:40.430Z,13.27
2022-10-18T03:53:06.972Z,13.26
2022-10-18T03:55:33.607Z,13.26
2022-10-18T03:58:00.237Z,13.22
2022-10-18T04:00:26.791Z,13.17
2022-10-18T04:02:55.824Z,13.15
2022-10-18T04:05:24.334Z,13.16
2022-10-18T04:07:50.993Z,13.14
2022-10-18T04:10:18.744Z,13.14
2022-10-18T04:12:45.420Z,13.14
2022-10-18T04:15:11.968Z,13.15
2022-10-18T04:17:38.487Z,13.13
2022-10-18T04:20:05.459Z,13.12
2022-10-18T04:22:32.043Z,13.11
2022-10-18T04:24:58.738Z,13.07
2022-10-18T04:27:25.337Z,13.07
2022-10-18T04:29:52.013Z,13.07
2022-10-18T04:32:18.513Z,13.03
2022-10-18T04:34:45.113Z,13.02
2022-10-18T04:37:11.696Z,13.00
2022-10-18T04:39:38.369Z,13.01
2022-10-18T04:42:04.963Z,13.01
2022-10-18T04:44:31.563Z,13.00
2022-10-18T04:46:58.096Z,12.96
2022-10-18T04:49:24.680Z,12.94
2022-10-18T04:51:51.227Z,12.94
2022-10-18T04:54:17.913Z,12.94
2022-10-18T04:56:44.443Z,12.96
2022-10-18T04:59:11.023Z,12.95
2022-10-18T05:01:37.531Z,12.94
2022-10-18T05:04:04.299Z,12.91
2022-10-18T05:06:30.904Z,12.86
2022-10-18T05:08:57.411Z,12.84
2022-10-18T05:11:24.100Z,12.84
2022-10-18T05:13:50.992Z,12.83
2022-10-18T05:16:17.764Z,12.84
2022-10-18T05:18:44.339Z,12.86
2022-10-18T05:21:12.386Z,12.85
2022-10-18T05:23:38.944Z,12.86
2022-10-18T05:26:06.387Z,12.85
2022-10-18T05:28:39.249Z,12.85
2022-10-18T05:31:06.905Z,12.85
2022-10-18T05:33:33.472Z,12.83
2022-10-18T05:36:00.129Z,12.81
2022-10-18T05:38:26.721Z,12.80
2022-10-18T05:40:53.338Z,12.81
2022-10-18T05:43:19.993Z,12.79
2022-10-18T05:45:50.295Z,12.71
2022-10-18T05:48:16.852Z,12.63
2022-10-18T05:50:43.674Z,12.65
2022-10-18T05:53:12.368Z,12.65
2022-10-18T05:55:51.305Z,12.64
2022-10-18T05:58:17.876Z,12.62
2022-10-18T06:00:44.455Z,12.64
2022-10-18T06:03:11.011Z,12.62
2022-10-18T06:05:40.506Z,12.62
2022-10-18T06:08:10.182Z,12.59
2022-10-18T06:10:39.074Z,12.60
2022-10-18T06:13:05.824Z,12.61
2022-10-18T06:15:32.383Z,12.62
2022-10-18T06:17:59.234Z,12.64
2022-10-18T06:20:25.980Z,12.66
2022-10-18T06:22:53.663Z,12.69
2022-10-18T06:25:20.287Z,12.71
2022-10-18T06:27:47.013Z,12.76
2022-10-18T06:30:13.889Z,12.80
2022-10-18T06:32:40.568Z,12.81
2022-10-18T06:35:08.798Z,12.85
2022-10-18T06:37:37.106Z,12.86
2022-10-18T06:40:04.293Z,12.86
2022-10-18T06:42:32.103Z,12.87
2022-10-18T06:45:00.549Z,12.88
2022-10-18T06:47:27.262Z,12.89
2022-10-18T06:49:53.962Z,12.88
2022-10-18T06:52:25.679Z,12.88
2022-10-18T06:54:52.941Z,12.90
2022-10-18T06:57:20.272Z,12.92
2022-10-18T06:59:47.004Z,12.94
2022-10-18T07:02:19.174Z,12.97
2022-10-18T07:04:45.901Z,12.98
2022-10-18T07:07:12.616Z,13.01
2022-10-18T07:09:39.393Z,13.04
2022-10-18T07:12:08.417Z,13.09
2022-10-18T07:14:35.373Z,13.16
2022-10-18T07:17:02.081Z,13.19
2022-10-18T07:19:28.776Z,13.19
2022-10-18T07:21:55.640Z,13.21
2022-10-18T07:24:22.453Z,13.27
2022-10-18T07:26:49.236Z,13.31
2022-10-18T07:29:16.053Z,13.40
2022-10-18T07:31:42.945Z,13.42
2022-10-18T07:34:10.987Z,13.47
2022-10-18T07:36:37.676Z,13.52
2022-10-18T07:39:04.608Z,13.57
2022-10-18T07:41:33.737Z,13.63
2022-10-18T07:44:00.520Z,13.68
2022-10-18T07:46:27.361Z,13.74
2022-10-18T07:48:53.991Z,13.80
2022-10-18T07:51:20.726Z,13.86
2022-10-18T07:53:47.734Z,13.89
2022-10-18T07:56:20.697Z,13.94
2022-10-18T07:58:48.360Z,13.92
2022-10-18T08:01:15.319Z,13.90
2022-10-18T08:03:42.235Z,13.91
2022-10-18T08:06:10.076Z,13.94
2022-10-18T08:08:37.208Z,13.98
2022-10-18T08:11:04.598Z,14.02
2022-10-18T08:13:31.429Z,14.02
2022-10-18T08:16:01.912Z,14.06
2022-10-18T08:18:28.709Z,14.09
2022-10-18T08:20:55.640Z,14.16
2022-10-18T08:23:22.447Z,14.28
2022-10-18T08:25:49.555Z,14.44
2022-10-18T08:28:17.663Z,14.65
2022-10-18T08:30:44.487Z,14.82
2022-10-18T08:33:11.391Z,14.92
2022-10-18T08:35:38.328Z,14.89
2022-10-18T08:38:05.568Z,14.87
2022-10-18T08:40:42.700Z,14.91
2022-10-18T08:43:21.861Z,14.99
2022-10-18T08:45:48.793Z,15.05
2022-10-18T08:48:24.056Z,15.15
2022-10-18T08:50:50.853Z,15.26
2022-10-18T08:53:20.227Z,15.30
2022-10-18T08:55:58.143Z,15.27
2022-10-18T08:58:27.550Z,15.26
2022-10-18T09:01:08.623Z,15.17
2022-10-18T09:03:50.143Z,15.22
2022-10-18T09:06:22.668Z,15.30
2022-10-18T09:08:54.014Z,15.28
2022-10-18T09:11:38.063Z,15.29
2022-10-18T09:14:14.570Z,15.31
2022-10-18T09:17:00.367Z,15.43
2022-10-18T09:19:30.625Z,15.59
2022-10-18T09:22:09.688Z,15.65
2022-10-18T09:24:41.821Z,15.66
2022-10-18T09:27:19.021Z,15.70
2022-10-18T09:29:55.615Z,15.72
2022-10-18T09:32:42.662Z,15.77
2022-10-18T09:35:14.878Z,15.81
2022-10-18T09:37:42.262Z,15.86
2022-10-18T09:40:19.006Z,15.85
2022-10-18T09:45:40.787Z,15.83
2022-10-18T09:48:14.308Z,15.81
2022-10-18T09:53:38.187Z,15.79
2022-10-18T09:58:54.419Z,15.79
2022-10-18T10:01:26.834Z,15.67
2022-10-18T10:03:58.722Z,15.61
2022-10-18T10:09:16.613Z,15.62
2022-10-18T10:11:49.999Z,15.71
2022-10-18T10:14:25.209Z,15.91
2022-10-18T10:16:53.414Z,16.00
2022-10-18T10:22:10.247Z,16.30
2022-10-18T10:24:49.000Z,16.44
2022-10-18T10:27:21.078Z,16.48
2022-10-18T10:29:52.693Z,16.53
2022-10-18T10:43:18.155Z,21.34
2022-10-18T10:45:56.830Z,22.00
2022-10-18T10:48:23.703Z,21.97
2022-10-18T10:51:09.411Z,23.40
2022-10-18T10:53:37.700Z,23.86
2022-10-18T10:56:05.598Z,23.29
2022-10-18T10:58:37.815Z,22.23
2022-10-18T11:04:24.344Z,20.70
2022-10-18T11:06:53.558Z,19.94
2022-10-18T11:09:29.411Z,19.27
2022-10-18T11:12:15.366Z,18.82
2022-10-18T11:14:42.794Z,18.52
2022-10-18T11:20:12.890Z,18.68
2022-10-18T11:22:45.789Z,18.82
2022-10-18T11:25:21.051Z,19.16
2022-10-18T11:27:55.356Z,19.65
2022-10-18T11:31:00.873Z,19.86
2022-10-18T11:33:49.469Z,19.69
2022-10-18T11:36:18.776Z,19.51
2022-10-18T11:39:05.904Z,19.39
2022-10-18T11:41:35.770Z,19.95
2022-10-18T11:44:04.357Z,21.06
2022-10-18T11:46:49.731Z,21.60
2022-10-18T11:49:30.076Z,21.56
2022-10-18T11:52:09.563Z,20.89
2022-10-18T11:54:37.215Z,20.04
2022-10-18T11:57:19.699Z,19.20
2022-10-18T12:00:05.494Z,18.53
2022-10-18T12:02:51.081Z,18.23
2022-10-18T12:10:44.328Z,18.83
2022-10-18T12:13:23.257Z,20.04
2022-10-18T12:15:50.008Z,20.83
2022-10-18T12:18:18.073Z,20.93
2022-10-18T12:20:55.093Z,20.23
2022-10-18T12:23:31.443Z,20.11
2022-10-18T12:26:02.614Z,19.90
2022-10-18T12:28:42.124Z,19.64
2022-10-18T12:31:25.854Z,19.51
2022-10-18T12:33:57.097Z,20.80
2022-10-18T12:36:35.841Z,23.37
2022-10-18T12:39:03.889Z,24.16
2022-10-18T12:41:31.915Z,23.41
2022-10-18T12:44:06.317Z,22.12
2022-10-18T12:46:48.409Z,20.68
2022-10-18T12:49:15.356Z,20.45
2022-10-18T12:52:05.361Z,20.55
2022-10-18T12:54:33.459Z,21.74
2022-10-18T12:57:00.969Z,21.74
2022-10-18T12:59:27.502Z,21.16
2022-10-18T13:01:54.091Z,20.89
2022-10-18T13:04:38.984Z,21.48
2022-10-18T13:07:05.550Z,20.80
2022-10-18T13:09:36.340Z,19.99
2022-10-18T13:12:05.973Z,19.06
2022-10-18T13:14:35.832Z,18.29
2022-10-18T13:17:14.600Z,17.76
2022-10-18T13:19:51.471Z,17.44
2022-10-18T13:22:24.851Z,17.46
2022-10-18T13:25:04.706Z,17.51
2022-10-18T13:27:37.300Z,17.59
2022-10-18T13:30:19.962Z,17.65
2022-10-18T13:32:57.329Z,17.62
2022-10-18T13:35:42.890Z,17.55
2022-10-18T13:38:24.702Z,17.56
2022-10-18T13:41:04.364Z,17.83
2022-10-18T13:43:52.439Z,18.02
2022-10-18T13:46:19.188Z,18.33
2022-10-18T13:48:46.964Z,18.56
2022-10-18T13:51:16.435Z,18.77
2022-10-18T13:53:55.316Z,18.90
2022-10-18T13:56:33.919Z,18.87
2022-10-18T13:59:13.705Z,18.69
2022-10-18T14:01:59.182Z,18.05
2022-10-18T14:04:31.796Z,17.54
2022-10-18T14:07:02.020Z,17.65
2022-10-18T14:09:45.575Z,17.71
2022-10-18T14:12:13.655Z,17.98
2022-10-18T14:14:43.647Z,17.90
2022-10-18T14:17:17.767Z,17.73
2022-10-18T14:19:45.146Z,17.58
2022-10-18T14:22:14.426Z,17.22
2022-10-18T14:24:42.524Z,16.77
2022-10-18T14:27:19.449Z,16.51
2022-10-18T14:29:46.611Z,16.30
2022-10-18T14:32:22.450Z,16.05
2022-10-18T14:34:48.927Z,15.89
2022-10-18T14:37:41.811Z,15.81
2022-10-18T14:40:24.546Z,15.62
2022-10-18T14:42:50.988Z,15.53
2022-10-18T14:45:18.470Z,15.37
2022-10-18T14:47:45.013Z,15.35
2022-10-18T14:50:27.994Z,15.34
2022-10-18T14:52:56.586Z,15.28
2022-10-18T14:55:24.236Z,15.26
2022-10-18T14:57:50.687Z,15.26
2022-10-18T15:00:25.635Z,15.24
2022-10-18T15:02:52.143Z,15.21
2022-10-18T15:05:21.587Z,15.18
2022-10-18T15:07:48.482Z,15.09
2022-10-18T15:10:16.568Z,15.00
2022-10-18T15:13:08.385Z,14.95
2022-10-18T15:15:30.787Z,14.94
2022-10-18T15:17:57.557Z,14.89
2022-10-18T15:20:32.039Z,14.73
2022-10-18T15:23:17.282Z,14.66
2022-10-18T15:25:43.762Z,14.59
2022-10-18T15:28:27.738Z,14.53
2022-10-18T15:30:54.289Z,14.44
2022-10-18T15:33:21.876Z,14.32
2022-10-18T15:35:48.373Z,14.18
2022-10-18T15:38:17.900Z,14.05
2022-10-18T15:40:44.391Z,13.98
2022-10-18T15:43:23.211Z,13.85
2022-10-18T15:45:50.635Z,13.67
2022-10-18T15:48:27.788Z,13.59
2022-10-18T15:50:55.027Z,13.46
2022-10-18T15:53:21.476Z,13.38
2022-10-18T15:55:52.347Z,13.32
2022-10-18T15:58:20.155Z,13.20
2022-10-18T16:00:46.992Z,13.04
2022-10-18T16:03:13.736Z,12.90
2022-10-18T16:05:40.219Z,12.77
2022-10-18T16:08:06.792Z,12.66
2022-10-18T16:10:33.328Z,12.52
2022-10-18T16:12:59.866Z,12.38
2022-10-18T16:15:26.305Z,12.23
2022-10-18T16:17:52.860Z,12.10
2022-10-18T16:20:23.494Z,11.98
2022-10-18T16:22:50.001Z,11.81
2022-10-18T16:25:16.742Z,11.70
2022-10-18T16:27:43.210Z,11.61
2022-10-18T16:30:14.171Z,11.48
2022-10-18T16:32:40.947Z,11.38
2022-10-18T16:35:07.912Z,11.37
2022-10-18T16:37:34.375Z,11.29
2022-10-18T16:40:00.877Z,11.14
2022-10-18T16:42:27.482Z,11.05
2022-10-18T16:44:55.056Z,10.92
2022-10-18T16:47:21.702Z,10.82
2022-10-18T16:49:48.535Z,10.79
2022-10-18T16:52:14.992Z,10.74
2022-10-18T16:54:41.452Z,10.65
2022-10-18T16:57:09.691Z,10.56
2022-10-18T16:59:36.119Z,10.39
2022-10-18T17:02:06.423Z,10.16
2022-10-18T17:04:32.921Z,10.09
2022-10-18T17:06:59.510Z,10.05
2022-10-18T17:09:25.973Z,9.98
2022-10-18T17:11:52.442Z,9.97
2022-10-18T17:14:19.010Z,9.91
2022-10-18T17:16:48.278Z,9.85
2022-10-18T17:19:19.403Z,9.79
2022-10-18T17:21:46.132Z,9.72
2022-10-18T17:24:12.640Z,9.63
2022-10-18T17:26:39.110Z,9.48
2022-10-18T17:29:06.450Z,9.43
2022-10-18T17:31:33.222Z,9.25
2022-10-18T17:34:01.808Z,9.18
2022-10-18T17:36:29.125Z,9.10
2022-10-18T17:38:55.851Z,9.01
2022-10-18T17:41:22.596Z,8.93
2022-10-18T17:43:49.132Z,8.92
2022-10-18T17:46:15.907Z,8.97
2022-10-18T17:48:42.535Z,8.94
2022-10-18T17:51:13.962Z,8.97
2022-10-18T17:53:40.521Z,8.95
2022-10-18T17:56:07.887Z,8.90
2022-10-18T17:58:34.721Z,8.83
2022-10-18T18:01:10.420Z,8.64
2022-10-18T18:03:36.990Z,8.47
2022-10-18T18:06:13.642Z,8.48
2022-10-18T18:08:40.109Z,8.51
2022-10-18T18:11:07.082Z,8.57
2022-10-18T18:13:33.605Z,8.53
2022-10-18T18:16:09.517Z,8.47
2022-10-18T18:18:36.046Z,8.46
2022-10-18T18:21:02.474Z,8.29
2022-10-18T18:23:29.167Z,8.23
2022-10-18T18:25:56.638Z,8.19
2022-10-18T18:28:23.161Z,8.29
2022-10-18T18:30:49.598Z,8.32
2022-10-18T18:33:16.073Z,8.33
2022-10-18T18:35:42.531Z,8.34
2022-10-18T18:38:09.250Z,8.26
2022-10-18T18:40:35.849Z,8.24
2022-10-18T18:43:18.956Z,8.21
2022-10-18T18:45:52.219Z,8.18
2022-10-18T18:48:19.944Z,8.05
2022-10-18T18:50:50.616Z,8.07
2022-10-18T18:53:17.238Z,8.08
2022-10-18T18:55:43.797Z,8.03
2022-10-18T18:58:10.731Z,7.94
2022-10-18T19:00:43.548Z,7.81
2022-10-18T19:03:11.552Z,7.70
2022-10-18T19:05:38.044Z,7.73
2022-10-18T19:08:05.062Z,7.77
2022-10-18T19:10:31.616Z,7.83
2022-10-18T19:12:58.304Z,7.82
2022-10-18T19:15:25.067Z,7.70
2022-10-18T19:17:51.626Z,7.59
2022-10-18T19:20:18.247Z,7.53
2022-10-18T19:22:45.156Z,7.58
2022-10-18T19:25:11.690Z,7.51
2022-10-18T19:27:38.264Z,7.32
2022-10-18T19:30:05.475Z,7.30
2022-10-18T19:32:32.084Z,7.36
2022-10-18T19:34:58.555Z,7.43
2022-10-18T19:37:25.210Z,7.44
2022-10-18T19:39:51.788Z,7.42
2022-10-18T19:42:22.615Z,7.45
2022-10-18T19:44:52.704Z,7.42
2022-10-18T19:47:20.501Z,7.33
2022-10-18T19:49:48.036Z,7.27
2022-10-18T19:52:14.704Z,7.27
2022-10-18T19:54:41.277Z,7.31
2022-10-18T19:57:07.948Z,7.27
2022-10-18T19:59:36.090Z,7.24
2022-10-18T20:02:04.762Z,7.17
2022-10-18T20:04:34.377Z,6.94
2022-10-18T20:07:02.476Z,6.84
2022-10-18T20:09:29.279Z,6.80
2022-10-18T20:11:55.774Z,6.68
2022-10-18T20:14:22.371Z,6.77
2022-10-18T20:16:48.840Z,6.75
2022-10-18T20:19:15.382Z,6.76
2022-10-18T20:21:41.846Z,6.79
2022-10-18T20:24:09.378Z,6.86
2022-10-18T20:26:36.126Z,6.89
2022-10-18T20:29:02.933Z,6.82
2022-10-18T20:31:30.745Z,6.84
2022-10-18T20:33:58.284Z,6.83
2022-10-18T20:36:25.065Z,6.81
2022-10-18T20:38:51.605Z,6.84
2022-10-18T20:41:22.668Z,6.79
2022-10-18T20:43:53.317Z,6.70
2022-10-18T20:46:20.600Z,6.52
2022-10-18T20:48:47.219Z,6.49
2022-10-18T20:51:13.781Z,6.40
2022-10-18T20:53:40.447Z,6.30
2022-10-18T20:56:10.928Z,6.29
2022-10-18T20:58:37.979Z,6.24
2022-10-18T21:01:08.525Z,6.17
2022-10-18T21:03:38.878Z,6.11
2022-10-18T21:06:15.372Z,6.11
2022-10-18T21:08:42.120Z,6.14
2022-10-18T21:11:08.806Z,6.10
2022-10-18T21:13:35.588Z,6.03
2022-10-18T21:16:02.390Z,6.07
2022-10-18T21:18:29.616Z,6.07
2022-10-18T21:20:56.137Z,6.09
2022-10-18T21:23:22.601Z,6.16
2022-10-18T21:25:49.135Z,6.10
2022-10-18T21:28:16.188Z,6.16
2022-10-18T21:30:42.676Z,6.20
2022-10-18T21:33:09.157Z,6.13
2022-10-18T21:35:38.711Z,6.01
2022-10-18T21:38:05.358Z,5.94
2022-10-18T21:40:32.274Z,5.88
2022-10-18T21:42:58.725Z,5.82
2022-10-18T21:45:25.161Z,5.75
2022-10-18T21:47:51.688Z,5.70
2022-10-18T21:50:18.182Z,5.74
2022-10-18T21:52:44.649Z,5.73
2022-10-18T21:55:11.180Z,5.70
2022-10-18T21:57:37.613Z,5.66
2022-10-18T22:00:05.061Z,5.62
2022-10-18T22:02:31.793Z,5.64
2022-10-18T22:04:58.433Z,5.65
2022-10-18T22:07:24.880Z,5.64
2022-10-18T22:09:51.340Z,5.63
2022-10-18T22:12:17.787Z,5.63
2022-10-18T22:14:44.234Z,5.66
2022-10-18T22:17:10.693Z,5.61
2022-10-18T22:19:37.274Z,5.60
2022-10-18T22:22:03.765Z,5.54
2022-10-18T22:24:30.330Z,5.50
2022-10-18T22:26:57.271Z,5.53
2022-10-18T22:29:23.827Z,5.50
2022-10-18T22:31:51.243Z,5.46
2022-10-18T22:34:18.905Z,5.27
2022-10-18T22:36:45.470Z,5.18
2022-10-18T22:39:14.354Z,5.08
2022-10-18T22:41:41.276Z,5.02
2022-10-18T22:44:12.202Z,5.00
2022-10-18T22:46:38.889Z,4.96
2022-10-18T22:49:05.462Z,4.93
2022-10-18T22:51:31.980Z,4.93
2022-10-18T22:53:58.565Z,4.92
2022-10-18T22:56:25.101Z,5.02
2022-10-18T22:58:51.602Z,5.02
2022-10-18T23:01:19.115Z,5.04
2022-10-18T23:03:45.641Z,4.99
2022-10-18T23:06:20.470Z,4.94
2022-10-18T23:08:47.240Z,4.91
2022-10-18T23:11:13.718Z,4.93
2022-10-18T23:13:40.173Z,4.96
2022-10-18T23:16:06.817Z,4.93
2022-10-18T23:18:33.447Z,4.95
2022-10-18T23:21:00.566Z,4.93
2022-10-18T23:23:29.017Z,4.87
2022-10-18T23:25:55.597Z,4.77
2022-10-18T23:28:22.106Z,4.77
2022-10-18T23:30:48.644Z,4.76
2022-10-18T23:33:15.086Z,4.75
2022-10-18T23:35:41.597Z,4.76
2022-10-18T23:38:08.027Z,4.81
2022-10-18T23:40:34.486Z,4.76
2022-10-18T23:43:01.076Z,4.68
2022-10-18T23:45:27.615Z,4.65
2022-10-18T23:47:54.220Z,4.62
2022-10-18T23:50:20.681Z,4.62
2022-10-18T23:52:47.188Z,4.60
2022-10-18T23:55:13.735Z,4.55
2022-10-18T23:57:40.209Z,4.56
